createdAt,value
2022-10-08T00:01:32.148Z,2.87
2022-10-08T00:04:00.761Z,2.90
2022-10-08T00:06:31.028Z,3.43
2022-10-08T00:09:02.240Z,3.17
2022-10-08T00:11:34.823Z,3.23
2022-10-08T00:14:03.588Z,2.97
2022-10-08T00:16:35.244Z,2.67
2022-10-08T00:19:07.992Z,3.03
2022-10-08T00:21:38.760Z,2.10
2022-10-08T00:24:09.589Z,2.73
2022-10-08T00:26:43.640Z,2.43
2022-10-08T00:29:14.561Z,2.77
2022-10-08T00:31:45.954Z,2.23
2022-10-08T00:34:18.345Z,2.57
2022-10-08T00:36:47.425Z,2.10
2022-10-08T00:39:18.201Z,2.50
2022-10-08T00:41:52.242Z,2.37
2022-10-08T00:44:54.096Z,2.50
2022-10-08T00:47:37.327Z,2.80
2022-10-08T00:50:11.432Z,2.67
2022-10-08T00:52:45.254Z,2.47
2022-10-08T00:55:16.519Z,2.93
2022-10-08T00:57:46.206Z,2.23
2022-10-08T01:00:20.811Z,2.50
2022-10-08T01:02:49.507Z,2.60
2022-10-08T01:05:27.738Z,2.53
2022-10-08T01:08:05.509Z,2.00
2022-10-08T01:10:41.542Z,2.10
2022-10-08T01:13:22.417Z,2.50
2022-10-08T01:16:02.022Z,2.20
2022-10-08T01:18:42.499Z,2.33
2022-10-08T01:21:13.948Z,1.97
2022-10-08T01:24:52.524Z,1.80
2022-10-08T01:27:29.746Z,2.27
2022-10-08T01:30:00.815Z,2.53
2022-10-08T01:32:37.191Z,2.03
2022-10-08T01:35:12.048Z,2.10
2022-10-08T01:37:43.085Z,2.17
2022-10-08T01:40:16.990Z,2.30
2022-10-08T01:42:49.403Z,2.50
2022-10-08T01:45:25.119Z,2.63
2022-10-08T01:47:55.821Z,2.70
2022-10-08T01:50:28.230Z,2.87
2022-10-08T01:53:00.704Z,2.77
2022-10-08T01:55:33.014Z,2.80
2022-10-08T01:58:07.184Z,2.80
2022-10-08T02:00:36.819Z,2.97
2022-10-08T02:03:05.500Z,2.40
2022-10-08T02:05:36.595Z,2.30
2022-10-08T02:08:05.562Z,2.40
2022-10-08T02:10:33.893Z,2.17
2022-10-08T02:13:03.841Z,2.17
2022-10-08T02:15:41.902Z,2.47
2022-10-08T02:18:16.348Z,2.67
2022-10-08T02:20:51.940Z,2.23
2022-10-08T02:23:27.257Z,2.70
2022-10-08T02:25:59.906Z,2.40
2022-10-08T02:28:37.553Z,2.40
2022-10-08T02:31:11.583Z,2.37
2022-10-08T02:33:45.247Z,2.80
2022-10-08T02:36:19.086Z,2.80
2022-10-08T02:38:53.877Z,2.80
2022-10-08T02:41:26.418Z,2.70
2022-10-08T02:43:59.804Z,3.03
2022-10-08T02:46:30.858Z,3.43
2022-10-08T02:49:06.015Z,3.60
2022-10-08T02:51:38.690Z,3.70
2022-10-08T02:54:07.558Z,3.53
2022-10-08T02:56:40.247Z,4.20
2022-10-08T02:59:10.666Z,4.40
2022-10-08T03:01:46.345Z,4.60
2022-10-08T03:04:18.946Z,4.67
2022-10-08T03:06:48.826Z,4.20
2022-10-08T03:09:18.517Z,5.07
2022-10-08T03:11:47.327Z,4.93
2022-10-08T03:14:20.508Z,5.30
2022-10-08T03:16:49.435Z,5.23
2022-10-08T03:19:19.860Z,5.07
2022-10-08T03:21:51.632Z,5.63
2022-10-08T03:24:19.785Z,5.77
2022-10-08T03:26:47.941Z,5.57
2022-10-08T03:29:17.450Z,5.53
2022-10-08T03:31:45.501Z,5.73
2022-10-08T03:34:13.590Z,5.90
2022-10-08T03:36:41.885Z,6.00
2022-10-08T03:39:11.575Z,5.40
2022-10-08T03:41:40.045Z,6.00
2022-10-08T03:44:10.699Z,5.87
2022-10-08T03:46:40.616Z,5.33
2022-10-08T03:49:08.900Z,5.87
2022-10-08T03:51:37.079Z,5.33
2022-10-08T03:54:05.558Z,6.27
2022-10-08T03:56:34.433Z,6.13
2022-10-08T03:59:03.934Z,6.10
2022-10-08T04:01:32.205Z,5.63
2022-10-08T04:04:01.700Z,5.40
2022-10-08T04:06:29.885Z,5.10
2022-10-08T04:09:01.078Z,5.30
2022-10-08T04:11:30.651Z,5.70
2022-10-08T04:13:58.853Z,5.53
2022-10-08T04:16:26.935Z,6.30
2022-10-08T04:18:55.197Z,5.60
2022-10-08T04:21:24.649Z,5.27
2022-10-08T04:23:52.856Z,5.07
2022-10-08T04:26:20.941Z,5.43
2022-10-08T04:28:49.210Z,5.47
2022-10-08T04:31:21.684Z,5.43
2022-10-08T04:33:51.051Z,5.00
2022-10-08T04:36:21.728Z,5.07
2022-10-08T04:38:52.033Z,5.30
2022-10-08T04:41:23.202Z,5.40
2022-10-08T04:43:52.911Z,5.43
2022-10-08T04:46:23.121Z,5.20
2022-10-08T04:48:53.789Z,5.27
2022-10-08T04:51:23.505Z,5.77
2022-10-08T04:53:53.960Z,5.90
2022-10-08T04:56:24.581Z,5.37
2022-10-08T04:58:55.055Z,5.33
2022-10-08T05:01:24.992Z,5.53
2022-10-08T05:03:56.546Z,6.20
2022-10-08T05:06:28.114Z,5.50
2022-10-08T05:08:59.843Z,6.43
2022-10-08T05:11:28.675Z,5.40
2022-10-08T05:13:59.045Z,5.27
2022-10-08T05:16:28.298Z,4.87
2022-10-08T05:18:57.506Z,5.20
2022-10-08T05:21:28.289Z,5.00
2022-10-08T05:24:00.043Z,5.97
2022-10-08T05:26:58.017Z,5.57
2022-10-08T05:29:20.629Z,4.53
2022-10-08T05:31:48.788Z,5.13
2022-10-08T05:34:17.135Z,4.87
2022-10-08T05:36:45.856Z,5.30
2022-10-08T05:39:15.695Z,4.67
2022-10-08T05:41:44.293Z,5.00
2022-10-08T05:44:13.099Z,4.90
2022-10-08T05:46:41.609Z,4.83
2022-10-08T05:49:18.157Z,5.73
2022-10-08T05:51:46.301Z,5.13
2022-10-08T05:54:16.659Z,5.50
2022-10-08T05:56:45.110Z,4.40
2022-10-08T05:59:18.084Z,4.80
2022-10-08T06:01:46.555Z,4.10
2022-10-08T06:04:15.041Z,4.93
2022-10-08T06:06:44.526Z,4.33
2022-10-08T06:09:16.895Z,4.40
2022-10-08T06:11:45.072Z,4.37
2022-10-08T06:14:16.728Z,4.37
2022-10-08T06:16:45.031Z,4.17
2022-10-08T06:19:13.312Z,3.80
2022-10-08T06:21:41.698Z,4.03
2022-10-08T06:24:12.646Z,3.83
2022-10-08T06:26:44.296Z,3.73
2022-10-08T06:29:16.417Z,3.47
2022-10-08T06:31:45.073Z,3.20
2022-10-08T06:34:13.305Z,3.53
2022-10-08T06:36:41.523Z,4.07
2022-10-08T06:39:13.220Z,3.60
2022-10-08T06:41:43.422Z,4.03
2022-10-08T06:44:13.724Z,3.47
2022-10-08T06:46:42.151Z,3.50
2022-10-08T06:49:12.261Z,3.50
2022-10-08T06:51:40.450Z,3.60
2022-10-08T06:54:08.954Z,3.70
2022-10-08T06:56:38.263Z,3.77
2022-10-08T06:59:08.314Z,3.07
2022-10-08T07:01:37.181Z,3.27
2022-10-08T07:04:07.000Z,3.67
2022-10-08T07:06:35.953Z,3.47
2022-10-08T07:09:06.802Z,2.93
2022-10-08T07:11:35.068Z,2.90
2022-10-08T07:14:03.289Z,3.03
2022-10-08T07:16:32.888Z,3.17
2022-10-08T07:19:01.860Z,3.10
2022-10-08T07:21:31.326Z,2.67
2022-10-08T07:24:01.997Z,3.13
2022-10-08T07:26:34.196Z,2.67
2022-10-08T07:29:06.887Z,3.77
2022-10-08T07:31:37.838Z,2.70
2022-10-08T07:34:08.582Z,2.27
2022-10-08T07:36:37.243Z,2.60
2022-10-08T07:39:08.261Z,2.70
2022-10-08T07:41:36.839Z,2.80
2022-10-08T07:44:06.932Z,2.60
2022-10-08T07:46:38.795Z,2.63
2022-10-08T07:49:06.906Z,2.40
2022-10-08T07:51:36.522Z,2.57
2022-10-08T07:54:07.397Z,2.47
2022-10-08T07:56:37.621Z,2.30
2022-10-08T07:59:07.274Z,2.43
2022-10-08T08:01:37.115Z,2.90
2022-10-08T08:04:07.543Z,2.77
2022-10-08T08:06:41.421Z,2.43
2022-10-08T08:09:10.344Z,1.90
2022-10-08T08:11:39.970Z,2.07
2022-10-08T08:14:08.650Z,2.37
2022-10-08T08:16:38.356Z,2.70
2022-10-08T08:19:07.045Z,2.40
2022-10-08T08:21:37.897Z,2.43
2022-10-08T08:24:07.929Z,2.40
2022-10-08T08:26:39.035Z,2.37
2022-10-08T08:29:09.771Z,2.50
2022-10-08T08:31:43.361Z,2.00
2022-10-08T08:34:14.994Z,2.40
2022-10-08T08:36:45.479Z,2.50
2022-10-08T08:39:18.303Z,2.40
2022-10-08T08:42:24.588Z,2.27
2022-10-08T08:44:59.971Z,2.37
2022-10-08T08:47:37.042Z,2.53
2022-10-08T08:50:14.360Z,2.03
2022-10-08T08:52:43.796Z,2.37
2022-10-08T08:55:17.545Z,2.63
2022-10-08T08:57:57.280Z,2.20
2022-10-08T09:00:32.264Z,2.30
2022-10-08T09:03:05.482Z,1.97
2022-10-08T09:05:41.771Z,1.77
2022-10-08T09:08:18.217Z,1.40
2022-10-08T09:10:52.542Z,1.90
2022-10-08T09:13:23.686Z,1.50
2022-10-08T09:15:52.998Z,1.33
2022-10-08T09:18:22.917Z,1.63
2022-10-08T09:20:51.020Z,1.23
2022-10-08T09:23:21.826Z,1.53
2022-10-08T09:25:57.554Z,1.30
2022-10-08T09:28:45.746Z,1.53
2022-10-08T09:31:25.382Z,1.40
2022-10-08T09:34:03.118Z,1.60
2022-10-08T09:36:39.537Z,1.53
2022-10-08T09:39:18.421Z,1.30
2022-10-08T09:41:49.005Z,1.33
2022-10-08T09:44:21.472Z,1.60
2022-10-08T09:47:05.425Z,1.50
2022-10-08T09:49:38.374Z,1.50
2022-10-08T09:52:17.191Z,1.33
2022-10-08T09:54:49.572Z,1.60
2022-10-08T09:57:20.385Z,2.23
2022-10-08T09:59:55.989Z,1.20
2022-10-08T10:02:34.618Z,1.70
2022-10-08T10:05:07.207Z,1.23
2022-10-08T10:07:42.281Z,1.17
2022-10-08T10:10:26.532Z,1.97
2022-10-08T10:12:59.694Z,1.17
2022-10-08T10:15:33.543Z,1.23
2022-10-08T10:18:06.841Z,1.00
2022-10-08T10:20:42.439Z,1.20
2022-10-08T10:23:16.330Z,1.10
2022-10-08T10:25:49.745Z,1.00
2022-10-08T10:28:27.057Z,1.60
2022-10-08T10:31:00.959Z,1.70
2022-10-08T10:33:34.558Z,2.27
2022-10-08T10:36:11.914Z,1.77
2022-10-08T10:38:46.840Z,1.57
2022-10-08T10:41:24.596Z,1.30
2022-10-08T10:43:55.920Z,1.90
2022-10-08T10:46:35.464Z,1.73
2022-10-08T10:49:04.000Z,1.57
2022-10-08T10:51:56.748Z,1.50
2022-10-08T10:54:52.232Z,1.67
2022-10-08T10:57:40.497Z,1.87
2022-10-08T11:00:15.622Z,1.80
2022-10-08T11:02:50.994Z,1.70
2022-10-08T11:05:25.689Z,1.97
2022-10-08T11:08:13.056Z,1.50
2022-10-08T11:10:56.390Z,2.00
2022-10-08T11:13:38.138Z,1.30
2022-10-08T11:16:22.628Z,2.00
2022-10-08T11:18:54.663Z,1.30
2022-10-08T11:21:46.225Z,1.27
2022-10-08T11:24:53.196Z,1.53
2022-10-08T11:27:34.453Z,1.27
2022-10-08T11:30:12.070Z,1.47
2022-10-08T11:32:41.694Z,1.43
2022-10-08T11:35:31.065Z,1.40
2022-10-08T11:38:10.756Z,1.30
2022-10-08T11:40:44.571Z,1.53
2022-10-08T11:43:19.110Z,2.33
2022-10-08T11:45:49.794Z,1.63
2022-10-08T11:48:34.731Z,1.90
2022-10-08T11:51:38.400Z,2.10
2022-10-08T11:54:15.488Z,1.60
2022-10-08T11:56:48.120Z,1.40
2022-10-08T11:59:37.395Z,1.40
2022-10-08T12:02:08.558Z,1.40
2022-10-08T12:04:38.800Z,2.00
2022-10-08T12:07:27.609Z,1.30
2022-10-08T12:10:34.963Z,1.40
2022-10-08T12:13:28.586Z,1.23
2022-10-08T12:16:08.181Z,1.10
2022-10-08T12:18:45.772Z,1.13
2022-10-08T12:21:56.799Z,1.20
2022-10-08T12:24:56.269Z,0.70
2022-10-08T12:27:30.659Z,1.00
2022-10-08T12:30:06.861Z,1.00
2022-10-08T12:32:56.985Z,1.97
2022-10-08T12:35:31.554Z,1.30
2022-10-08T12:38:26.234Z,1.50
2022-10-08T12:41:11.951Z,1.80
2022-10-08T12:43:48.798Z,1.90
2022-10-08T12:46:33.913Z,1.43
2022-10-08T12:49:07.448Z,1.77
2022-10-08T12:51:45.169Z,1.50
2022-10-08T12:54:21.333Z,1.50
2022-10-08T12:56:50.725Z,1.73
2022-10-08T12:59:19.736Z,1.67
2022-10-08T13:01:51.610Z,2.00
2022-10-08T13:04:22.318Z,1.33
2022-10-08T13:06:52.661Z,1.70
2022-10-08T13:09:28.974Z,1.10
2022-10-08T13:12:03.393Z,1.97
2022-10-08T13:14:34.695Z,1.70
2022-10-08T13:17:08.933Z,1.67
2022-10-08T13:19:39.187Z,1.73
2022-10-08T13:22:24.226Z,1.80
2022-10-08T13:24:52.897Z,1.47
2022-10-08T13:27:27.296Z,1.87
2022-10-08T13:29:55.939Z,1.47
2022-10-08T13:32:26.903Z,1.37
2022-10-08T13:34:58.523Z,1.00
2022-10-08T13:37:31.448Z,0.70
2022-10-08T13:40:01.883Z,0.40
2022-10-08T13:42:33.168Z,0.30
2022-10-08T13:45:02.976Z,0.40
2022-10-08T13:47:32.696Z,0.40
2022-10-08T13:50:02.256Z,0.43
2022-10-08T13:52:33.431Z,0.70
2022-10-08T13:55:04.993Z,0.90
2022-10-08T13:57:33.839Z,0.90
2022-10-08T14:00:01.934Z,0.90
2022-10-08T14:02:30.126Z,1.07
2022-10-08T14:04:59.633Z,1.33
2022-10-08T14:07:32.534Z,1.00
2022-10-08T14:10:01.987Z,1.30
2022-10-08T14:12:34.052Z,0.87
2022-10-08T14:15:03.023Z,0.93
2022-10-08T14:17:32.562Z,1.00
2022-10-08T14:20:04.568Z,2.17
2022-10-08T14:22:38.789Z,1.40
2022-10-08T14:25:11.919Z,0.97
2022-10-08T14:27:40.149Z,1.30
2022-10-08T14:30:11.417Z,1.00
2022-10-08T14:32:39.840Z,1.37
2022-10-08T14:35:10.719Z,1.20
2022-10-08T14:37:39.415Z,1.00
2022-10-08T14:40:10.212Z,2.17
2022-10-08T14:42:38.388Z,1.50
2022-10-08T14:45:07.971Z,1.23
2022-10-08T14:47:36.103Z,1.63
2022-10-08T14:50:04.520Z,2.10
2022-10-08T14:52:34.983Z,0.97
2022-10-08T14:55:03.114Z,1.33
2022-10-08T14:57:31.377Z,1.20
2022-10-08T14:59:59.549Z,1.07
2022-10-08T15:02:27.796Z,1.20
2022-10-08T15:04:56.066Z,1.00
2022-10-08T15:07:24.206Z,1.73
2022-10-08T15:09:53.705Z,1.80
2022-10-08T15:12:21.851Z,1.80
2022-10-08T15:14:49.933Z,3.30
2022-10-08T15:17:18.306Z,1.67
2022-10-08T15:19:46.902Z,1.10
2022-10-08T15:22:15.042Z,1.70
2022-10-08T15:24:43.309Z,1.60
2022-10-08T15:27:15.242Z,1.40
2022-10-08T15:29:46.831Z,2.00
2022-10-08T15:32:15.799Z,1.40
2022-10-08T15:34:44.024Z,1.77
2022-10-08T15:37:12.317Z,1.40
2022-10-08T15:39:40.789Z,1.20
2022-10-08T15:42:11.547Z,1.30
2022-10-08T15:44:44.202Z,1.30
2022-10-08T15:47:12.268Z,1.53
2022-10-08T15:49:42.816Z,1.83
2022-10-08T15:52:14.267Z,1.63
2022-10-08T15:54:43.590Z,1.60
2022-10-08T15:57:14.796Z,1.50
2022-10-08T15:59:44.785Z,2.20
2022-10-08T16:02:17.422Z,2.27
2022-10-08T16:04:47.801Z,1.17
2022-10-08T16:07:16.239Z,1.80
2022-10-08T16:09:44.438Z,1.43
2022-10-08T16:12:12.584Z,1.60
2022-10-08T16:14:40.765Z,1.67
2022-10-08T16:17:10.700Z,1.93
2022-10-08T16:19:38.865Z,2.03
2022-10-08T16:22:08.038Z,1.83
2022-10-08T16:24:36.264Z,1.50
2022-10-08T16:27:04.697Z,1.70
2022-10-08T16:29:32.817Z,1.60
2022-10-08T16:32:00.924Z,1.40
2022-10-08T16:34:31.761Z,1.80
2022-10-08T16:37:01.397Z,1.57
2022-10-08T16:39:29.626Z,1.40
2022-10-08T16:41:57.798Z,1.53
2022-10-08T16:44:25.985Z,1.83
2022-10-08T16:46:54.628Z,1.63
2022-10-08T16:49:26.273Z,2.43
2022-10-08T16:51:59.036Z,1.70
2022-10-08T16:54:28.605Z,1.90
2022-10-08T16:56:57.125Z,1.93
2022-10-08T16:59:28.138Z,2.10
2022-10-08T17:01:59.407Z,1.70
2022-10-08T17:04:29.758Z,1.90
2022-10-08T17:06:59.422Z,1.80
2022-10-08T17:09:27.727Z,1.50
2022-10-08T17:11:55.824Z,1.73
2022-10-08T17:14:23.927Z,2.23
2022-10-08T17:16:53.448Z,2.20
2022-10-08T17:19:21.708Z,1.97
2022-10-08T17:21:49.850Z,2.10
2022-10-08T17:24:19.434Z,3.60
2022-10-08T17:26:49.601Z,2.37
2022-10-08T17:29:17.766Z,2.17
2022-10-08T17:31:45.904Z,2.00
2022-10-08T17:34:14.142Z,2.20
2022-10-08T17:36:44.130Z,2.07
2022-10-08T17:39:15.070Z,2.00
2022-10-08T17:41:44.904Z,2.10
2022-10-08T17:44:13.904Z,3.50
2022-10-08T17:46:45.921Z,4.20
2022-10-08T17:49:15.086Z,5.43
2022-10-08T17:51:43.438Z,3.60
2022-10-08T17:54:14.823Z,3.37
2022-10-08T17:56:44.673Z,3.27
2022-10-08T17:59:15.642Z,3.17
2022-10-08T18:01:45.284Z,3.97
2022-10-08T18:04:16.698Z,3.07
2022-10-08T18:06:47.142Z,2.47
2022-10-08T18:09:18.476Z,2.40
2022-10-08T18:11:51.812Z,2.53
2022-10-08T18:14:20.735Z,2.50
2022-10-08T18:16:49.115Z,2.67
2022-10-08T18:19:18.043Z,2.77
2022-10-08T18:21:46.725Z,3.30
2022-10-08T18:24:15.011Z,3.10
2022-10-08T18:26:43.404Z,3.37
2022-10-08T18:29:15.410Z,3.37
2022-10-08T18:31:46.460Z,3.10
2022-10-08T18:34:18.227Z,3.70
2022-10-08T18:36:47.283Z,3.23
2022-10-08T18:39:17.665Z,4.00
2022-10-08T18:41:48.639Z,4.80
2022-10-08T18:44:21.422Z,4.40
2022-10-08T18:46:50.315Z,4.37
2022-10-08T18:49:20.710Z,4.43
2022-10-08T18:51:51.035Z,4.37
2022-10-08T18:54:19.432Z,3.87
2022-10-08T18:56:47.576Z,4.03
2022-10-08T18:59:18.637Z,3.93
2022-10-08T19:01:48.591Z,4.47
2022-10-08T19:04:19.508Z,3.80
2022-10-08T19:06:50.313Z,4.03
2022-10-08T19:09:18.883Z,3.50
2022-10-08T19:11:49.726Z,3.30
2022-10-08T19:14:22.362Z,3.87
2022-10-08T19:16:50.961Z,3.77
2022-10-08T19:19:21.023Z,4.03
2022-10-08T19:21:50.511Z,4.23
2022-10-08T19:24:20.779Z,4.53
2022-10-08T19:26:50.216Z,4.30
2022-10-08T19:29:22.593Z,3.70
2022-10-08T19:31:51.222Z,3.80
2022-10-08T19:34:22.345Z,4.47
2022-10-08T19:36:50.744Z,4.10
2022-10-08T19:39:20.947Z,3.87
2022-10-08T19:41:49.921Z,3.57
2022-10-08T19:44:20.323Z,3.73
2022-10-08T19:46:48.597Z,3.07
2022-10-08T19:49:17.517Z,2.80
2022-10-08T19:51:46.213Z,3.10
2022-10-08T19:54:14.780Z,3.10
2022-10-08T19:56:43.411Z,3.10
2022-10-08T19:59:12.895Z,4.17
2022-10-08T20:01:44.767Z,6.60
2022-10-08T20:04:14.086Z,3.73
2022-10-08T20:06:43.658Z,3.60
2022-10-08T20:09:14.016Z,3.20
2022-10-08T20:11:44.505Z,4.27
2022-10-08T20:14:14.679Z,3.03
2022-10-08T20:16:45.003Z,3.00
2022-10-08T20:19:18.256Z,3.67
2022-10-08T20:21:46.739Z,4.63
2022-10-08T20:24:15.680Z,3.10
2022-10-08T20:26:45.205Z,3.50
2022-10-08T20:29:15.727Z,3.70
2022-10-08T20:31:49.452Z,3.27
2022-10-08T20:34:19.873Z,3.60
2022-10-08T20:36:49.385Z,3.83
2022-10-08T20:39:22.818Z,4.30
2022-10-08T20:41:51.833Z,4.20
2022-10-08T20:44:20.499Z,3.60
2022-10-08T20:46:50.854Z,3.97
2022-10-08T20:49:19.697Z,4.17
2022-10-08T20:51:48.067Z,4.40
2022-10-08T20:54:18.036Z,3.73
2022-10-08T20:56:46.488Z,3.13
2022-10-08T20:59:17.652Z,3.80
2022-10-08T21:01:46.857Z,4.10
2022-10-08T21:04:16.530Z,4.07
2022-10-08T21:06:47.044Z,4.03
2022-10-08T21:09:16.998Z,3.70
2022-10-08T21:11:46.856Z,3.73
2022-10-08T21:14:18.434Z,4.93
2022-10-08T21:16:46.773Z,4.63
2022-10-08T21:19:21.949Z,3.63
2022-10-08T21:21:50.475Z,4.37
2022-10-08T21:24:18.883Z,3.73
2022-10-08T21:26:47.127Z,3.37
2022-10-08T21:29:16.309Z,4.07
2022-10-08T21:31:44.772Z,4.20
2022-10-08T21:34:15.174Z,4.00
2022-10-08T21:36:44.652Z,3.43
2022-10-08T21:39:17.674Z,3.63
2022-10-08T21:41:46.263Z,3.27
2022-10-08T21:44:15.378Z,3.53
2022-10-08T21:46:44.038Z,3.83
2022-10-08T21:49:16.527Z,3.47
2022-10-08T21:51:45.486Z,3.37
2022-10-08T21:54:14.400Z,3.27
2022-10-08T21:56:43.504Z,3.50
2022-10-08T21:59:14.559Z,3.53
2022-10-08T22:01:45.359Z,3.00
2022-10-08T22:04:17.553Z,3.43
2022-10-08T22:06:48.542Z,3.20
2022-10-08T22:09:19.159Z,3.77
2022-10-08T22:11:47.631Z,3.40
2022-10-08T22:14:16.388Z,2.93
2022-10-08T22:16:44.908Z,3.83
2022-10-08T22:19:14.824Z,3.90
2022-10-08T22:21:43.055Z,3.50
2022-10-08T22:24:11.411Z,3.77
2022-10-08T22:26:42.765Z,3.60
2022-10-08T22:29:11.251Z,4.10
2022-10-08T22:31:40.378Z,3.03
2022-10-08T22:34:08.868Z,3.40
2022-10-08T22:36:42.402Z,3.33
2022-10-08T22:39:10.984Z,3.80
2022-10-08T22:41:39.510Z,3.13
2022-10-08T22:44:07.919Z,3.60
2022-10-08T22:46:38.961Z,4.63
2022-10-08T22:49:09.745Z,3.60
2022-10-08T22:51:40.154Z,4.10
2022-10-08T22:54:10.016Z,4.00
2022-10-08T22:56:38.213Z,3.43
2022-10-08T22:59:06.397Z,4.13
2022-10-08T23:01:34.522Z,4.07
2022-10-08T23:04:02.585Z,3.80
2022-10-08T23:06:33.626Z,4.00
2022-10-08T23:09:05.507Z,3.60
2022-10-08T23:11:34.339Z,4.00
2022-10-08T23:14:03.179Z,3.70
2022-10-08T23:16:34.007Z,4.60
2022-10-08T23:19:05.153Z,4.37
2022-10-08T23:21:33.719Z,4.70
2022-10-08T23:24:03.656Z,4.20
2022-10-08T23:26:31.941Z,4.20
2022-10-08T23:29:01.853Z,4.53
2022-10-08T23:31:32.047Z,3.70
2022-10-08T23:34:01.270Z,4.23
2022-10-08T23:36:34.686Z,3.93
2022-10-08T23:39:05.584Z,3.60
2022-10-08T23:41:33.959Z,4.53
2022-10-08T23:44:02.131Z,4.23
2022-10-08T23:46:31.758Z,3.90
2022-10-08T23:49:01.064Z,4.07
2022-10-08T23:51:32.101Z,4.20
2022-10-08T23:54:01.012Z,4.50
2022-10-08T23:56:31.024Z,4.50
2022-10-08T23:58:59.544Z,4.30
